sensor_id;sensor_type;location;lat;lon;timestamp;temperature;humidity
76996;DHT22;65929;49.062;10.338;2022-12-13T00:00:46;-11.20;90.70
76996;DHT22;65929;49.062;10.338;2022-12-13T00:01:48;-11.20;90.60
76996;DHT22;65929;49.062;10.338;2022-12-13T00:02:52;-11.20;90.60
76996;DHT22;65929;49.062;10.338;2022-12-13T00:03:53;-11.20;90.60
76996;DHT22;65929;49.062;10.338;2022-12-13T00:04:54;-11.20;90.60
76996;DHT22;65929;49.062;10.338;2022-12-13T00:05:55;-11.30;90.50
76996;DHT22;65929;49.062;10.338;2022-12-13T00:06:56;-11.30;90.40
76996;DHT22;65929;49.062;10.338;2022-12-13T00:07:58;-11.40;90.40
76996;DHT22;65929;49.062;10.338;2022-12-13T00:08:59;-11.40;90.40
76996;DHT22;65929;49.062;10.338;2022-12-13T00:10:03;-11.40;90.50
76996;DHT22;65929;49.062;10.338;2022-12-13T00:11:06;-11.40;90.40
76996;DHT22;65929;49.062;10.338;2022-12-13T00:12:07;-11.40;90.40
76996;DHT22;65929;49.062;10.338;2022-12-13T00:13:08;-11.40;90.40
76996;DHT22;65929;49.062;10.338;2022-12-13T00:14:09;-11.50;90.20
76996;DHT22;65929;49.062;10.338;2022-12-13T00:15:11;-11.50;90.20
76996;DHT22;65929;49.062;10.338;2022-12-13T00:16:13;-11.50;90.20
76996;DHT22;65929;49.062;10.338;2022-12-13T00:17:15;-11.60;90.10
76996;DHT22;65929;49.062;10.338;2022-12-13T00:18:15;-11.60;90.00
76996;DHT22;65929;49.062;10.338;2022-12-13T00:19:17;-11.70;89.80
76996;DHT22;65929;49.062;10.338;2022-12-13T00:20:18;-11.80;89.90
76996;DHT22;65929;49.062;10.338;2022-12-13T00:21:20;-11.80;90.00
76996;DHT22;65929;49.062;10.338;2022-12-13T00:22:21;-11.80;90.10
76996;DHT22;65929;49.062;10.338;2022-12-13T00:23:23;-11.90;90.30
76996;DHT22;65929;49.062;10.338;2022-12-13T00:24:24;-11.90;90.50
76996;DHT22;65929;49.062;10.338;2022-12-13T00:25:26;-11.90;90.60
76996;DHT22;65929;49.062;10.338;2022-12-13T00:26:29;-11.90;90.60
76996;DHT22;65929;49.062;10.338;2022-12-13T00:27:30;-12.00;90.70
76996;DHT22;65929;49.062;10.338;2022-12-13T00:28:30;-12.00;90.70
76996;DHT22;65929;49.062;10.338;2022-12-13T00:29:32;-12.00;90.70
76996;DHT22;65929;49.062;10.338;2022-12-13T00:30:33;-12.00;90.80
76996;DHT22;65929;49.062;10.338;2022-12-13T00:31:34;-12.00;90.80
76996;DHT22;65929;49.062;10.338;2022-12-13T00:32:36;-12.00;90.90
76996;DHT22;65929;49.062;10.338;2022-12-13T00:33:37;-12.00;90.90
76996;DHT22;65929;49.062;10.338;2022-12-13T00:34:41;-12.00;90.90
76996;DHT22;65929;49.062;10.338;2022-12-13T00:35:42;-12.00;90.90
76996;DHT22;65929;49.062;10.338;2022-12-13T00:36:45;-12.10;90.80
76996;DHT22;65929;49.062;10.338;2022-12-13T00:37:46;-12.10;90.80
76996;DHT22;65929;49.062;10.338;2022-12-13T00:38:47;-12.10;90.70
76996;DHT22;65929;49.062;10.338;2022-12-13T00:39:59;-12.10;90.70
76996;DHT22;65929;49.062;10.338;2022-12-13T00:41:11;-12.10;90.70
76996;DHT22;65929;49.062;10.338;2022-12-13T00:42:12;-12.10;90.70
76996;DHT22;65929;49.062;10.338;2022-12-13T00:43:13;-12.10;90.70
76996;DHT22;65929;49.062;10.338;2022-12-13T00:44:14;-12.10;90.60
76996;DHT22;65929;49.062;10.338;2022-12-13T00:45:15;-12.10;90.60
76996;DHT22;65929;49.062;10.338;2022-12-13T00:46:18;-12.10;90.70
76996;DHT22;65929;49.062;10.338;2022-12-13T00:47:19;-12.10;90.70
76996;DHT22;65929;49.062;10.338;2022-12-13T00:48:21;-12.20;90.70
76996;DHT22;65929;49.062;10.338;2022-12-13T00:49:23;-12.20;90.70
76996;DHT22;65929;49.062;10.338;2022-12-13T00:50:25;-12.10;90.80
76996;DHT22;65929;49.062;10.338;2022-12-13T00:51:27;-12.20;90.70
76996;DHT22;65929;49.062;10.338;2022-12-13T00:52:28;-12.20;90.70
76996;DHT22;65929;49.062;10.338;2022-12-13T00:53:29;-12.10;90.80
76996;DHT22;65929;49.062;10.338;2022-12-13T00:54:30;-12.10;90.90
76996;DHT22;65929;49.062;10.338;2022-12-13T00:55:31;-12.10;90.90
76996;DHT22;65929;49.062;10.338;2022-12-13T00:56:34;-12.10;91.00
76996;DHT22;65929;49.062;10.338;2022-12-13T00:57:36;-12.10;90.90
76996;DHT22;65929;49.062;10.338;2022-12-13T00:58:37;-12.10;90.90
76996;DHT22;65929;49.062;10.338;2022-12-13T00:59:38;-12.10;90.80
76996;DHT22;65929;49.062;10.338;2022-12-13T01:00:39;-12.10;90.70
76996;DHT22;65929;49.062;10.338;2022-12-13T01:01:40;-12.10;90.60
76996;DHT22;65929;49.062;10.338;2022-12-13T01:02:41;-12.10;90.50
76996;DHT22;65929;49.062;10.338;2022-12-13T01:03:43;-12.10;90.40
76996;DHT22;65929;49.062;10.338;2022-12-13T01:04:44;-12.10;90.40
76996;DHT22;65929;49.062;10.338;2022-12-13T01:05:45;-12.10;90.30
76996;DHT22;65929;49.062;10.338;2022-12-13T01:06:47;-12.10;90.30
76996;DHT22;65929;49.062;10.338;2022-12-13T01:07:51;-12.10;90.40
76996;DHT22;65929;49.062;10.338;2022-12-13T01:08:52;-12.10;90.30
76996;DHT22;65929;49.062;10.338;2022-12-13T01:09:53;-12.10;90.10
76996;DHT22;65929;49.062;10.338;2022-12-13T01:10:54;-12.10;90.00
76996;DHT22;65929;49.062;10.338;2022-12-13T01:11:57;-12.20;89.80
76996;DHT22;65929;49.062;10.338;2022-12-13T01:12:59;-12.20;89.60
76996;DHT22;65929;49.062;10.338;2022-12-13T01:13:59;-12.20;89.50
76996;DHT22;65929;49.062;10.338;2022-12-13T01:15:01;-12.20;89.50
76996;DHT22;65929;49.062;10.338;2022-12-13T01:16:03;-12.20;89.40
76996;DHT22;65929;49.062;10.338;2022-12-13T01:17:05;-12.20;89.40
76996;DHT22;65929;49.062;10.338;2022-12-13T01:18:06;-12.30;89.30
76996;DHT22;65929;49.062;10.338;2022-12-13T01:19:07;-12.30;89.10
76996;DHT22;65929;49.062;10.338;2022-12-13T01:20:09;-12.40;89.00
76996;DHT22;65929;49.062;10.338;2022-12-13T01:21:12;-12.40;88.80
76996;DHT22;65929;49.062;10.338;2022-12-13T01:22:13;-12.40;88.70
76996;DHT22;65929;49.062;10.338;2022-12-13T01:23:14;-12.40;88.50
76996;DHT22;65929;49.062;10.338;2022-12-13T01:24:16;-12.40;88.30
76996;DHT22;65929;49.062;10.338;2022-12-13T01:25:20;-12.50;88.10
76996;DHT22;65929;49.062;10.338;2022-12-13T01:26:22;-12.60;87.90
76996;DHT22;65929;49.062;10.338;2022-12-13T01:27:24;-12.60;87.60
76996;DHT22;65929;49.062;10.338;2022-12-13T01:28:25;-12.60;87.30
76996;DHT22;65929;49.062;10.338;2022-12-13T01:29:26;-12.60;87.20
76996;DHT22;65929;49.062;10.338;2022-12-13T01:30:28;-12.60;87.20
76996;DHT22;65929;49.062;10.338;2022-12-13T01:31:28;-12.70;87.20
76996;DHT22;65929;49.062;10.338;2022-12-13T01:32:29;-12.70;87.30
76996;DHT22;65929;49.062;10.338;2022-12-13T01:33:31;-12.70;87.30
76996;DHT22;65929;49.062;10.338;2022-12-13T01:34:32;-12.70;87.30
76996;DHT22;65929;49.062;10.338;2022-12-13T01:35:33;-12.70;87.40
76996;DHT22;65929;49.062;10.338;2022-12-13T01:36:35;-12.70;87.60
76996;DHT22;65929;49.062;10.338;2022-12-13T01:37:36;-12.70;87.90
76996;DHT22;65929;49.062;10.338;2022-12-13T01:38:37;-12.70;88.20
76996;DHT22;65929;49.062;10.338;2022-12-13T01:39:38;-12.70;88.30
76996;DHT22;65929;49.062;10.338;2022-12-13T01:40:42;-12.70;88.30
76996;DHT22;65929;49.062;10.338;2022-12-13T01:41:45;-12.70;88.40
76996;DHT22;65929;49.062;10.338;2022-12-13T01:42:48;-12.70;88.50
76996;DHT22;65929;49.062;10.338;2022-12-13T01:43:59;-12.70;88.30
76996;DHT22;65929;49.062;10.338;2022-12-13T01:45:04;-12.70;88.30
76996;DHT22;65929;49.062;10.338;2022-12-13T01:46:06;-12.70;88.20
76996;DHT22;65929;49.062;10.338;2022-12-13T01:47:07;-12.70;88.00
76996;DHT22;65929;49.062;10.338;2022-12-13T01:48:12;-12.70;88.00
76996;DHT22;65929;49.062;10.338;2022-12-13T01:49:16;-12.70;88.00
76996;DHT22;65929;49.062;10.338;2022-12-13T01:50:22;-12.70;88.10
76996;DHT22;65929;49.062;10.338;2022-12-13T01:51:27;-12.70;88.20
76996;DHT22;65929;49.062;10.338;2022-12-13T01:52:31;-12.70;88.40
76996;DHT22;65929;49.062;10.338;2022-12-13T01:53:36;-12.70;88.50
76996;DHT22;65929;49.062;10.338;2022-12-13T01:54:42;-12.70;88.50
76996;DHT22;65929;49.062;10.338;2022-12-13T01:55:47;-12.70;88.30
76996;DHT22;65929;49.062;10.338;2022-12-13T01:56:52;-12.70;88.40
76996;DHT22;65929;49.062;10.338;2022-12-13T01:57:58;-12.70;88.20
76996;DHT22;65929;49.062;10.338;2022-12-13T01:59:02;-12.70;88.30
76996;DHT22;65929;49.062;10.338;2022-12-13T02:00:05;-12.70;88.50
76996;DHT22;65929;49.062;10.338;2022-12-13T02:01:08;-12.70;88.60
76996;DHT22;65929;49.062;10.338;2022-12-13T02:02:10;-12.80;88.60
76996;DHT22;65929;49.062;10.338;2022-12-13T02:03:13;-12.80;88.70
76996;DHT22;65929;49.062;10.338;2022-12-13T02:04:15;-12.80;88.60
76996;DHT22;65929;49.062;10.338;2022-12-13T02:05:22;-12.80;88.50
76996;DHT22;65929;49.062;10.338;2022-12-13T02:06:27;-12.80;88.60
76996;DHT22;65929;49.062;10.338;2022-12-13T02:07:32;-12.80;88.40
76996;DHT22;65929;49.062;10.338;2022-12-13T02:08:35;-12.80;88.40
76996;DHT22;65929;49.062;10.338;2022-12-13T02:09:36;-12.80;88.50
76996;DHT22;65929;49.062;10.338;2022-12-13T02:10:38;-12.80;88.50
76996;DHT22;65929;49.062;10.338;2022-12-13T02:11:41;-12.80;88.60
76996;DHT22;65929;49.062;10.338;2022-12-13T02:12:43;-12.90;88.70
76996;DHT22;65929;49.062;10.338;2022-12-13T02:13:45;-12.90;88.90
76996;DHT22;65929;49.062;10.338;2022-12-13T02:14:47;-12.90;88.90
76996;DHT22;65929;49.062;10.338;2022-12-13T02:16:02;-12.90;89.10
76996;DHT22;65929;49.062;10.338;2022-12-13T02:17:11;-12.90;89.20
76996;DHT22;65929;49.062;10.338;2022-12-13T02:18:24;-12.90;89.40
76996;DHT22;65929;49.062;10.338;2022-12-13T02:19:50;-12.90;89.60
76996;DHT22;65929;49.062;10.338;2022-12-13T02:21:08;-12.90;89.80
76996;DHT22;65929;49.062;10.338;2022-12-13T02:22:22;-12.90;89.90
76996;DHT22;65929;49.062;10.338;2022-12-13T02:25:19;-12.90;90.20
76996;DHT22;65929;49.062;10.338;2022-12-13T02:26:44;-12.90;90.30
76996;DHT22;65929;49.062;10.338;2022-12-13T02:28:01;-12.90;90.50
76996;DHT22;65929;49.062;10.338;2022-12-13T02:30:45;-12.90;90.70
76996;DHT22;65929;49.062;10.338;2022-12-13T02:31:54;-12.90;90.80
76996;DHT22;65929;49.062;10.338;2022-12-13T02:34:25;-13.00;90.80
76996;DHT22;65929;49.062;10.338;2022-12-13T02:35:33;-13.00;90.80
76996;DHT22;65929;49.062;10.338;2022-12-13T02:36:42;-13.00;90.70
76996;DHT22;65929;49.062;10.338;2022-12-13T02:37:49;-13.00;90.70
76996;DHT22;65929;49.062;10.338;2022-12-13T02:38:57;-13.00;90.60
76996;DHT22;65929;49.062;10.338;2022-12-13T02:40:02;-13.00;90.40
76996;DHT22;65929;49.062;10.338;2022-12-13T02:41:10;-13.00;90.20
76996;DHT22;65929;49.062;10.338;2022-12-13T02:42:18;-13.00;90.00
76996;DHT22;65929;49.062;10.338;2022-12-13T02:43:24;-13.10;89.70
76996;DHT22;65929;49.062;10.338;2022-12-13T02:44:28;-13.10;89.60
76996;DHT22;65929;49.062;10.338;2022-12-13T02:45:36;-13.10;89.40
76996;DHT22;65929;49.062;10.338;2022-12-13T02:46:45;-13.10;89.20
76996;DHT22;65929;49.062;10.338;2022-12-13T02:47:51;-13.10;89.00
76996;DHT22;65929;49.062;10.338;2022-12-13T02:48:55;-13.10;88.90
76996;DHT22;65929;49.062;10.338;2022-12-13T02:50:03;-13.10;88.70
76996;DHT22;65929;49.062;10.338;2022-12-13T02:51:08;-13.10;88.60
76996;DHT22;65929;49.062;10.338;2022-12-13T02:52:11;-13.20;88.50
76996;DHT22;65929;49.062;10.338;2022-12-13T02:53:14;-13.20;88.60
76996;DHT22;65929;49.062;10.338;2022-12-13T02:54:15;-13.10;88.80
76996;DHT22;65929;49.062;10.338;2022-12-13T02:55:17;-13.10;88.80
76996;DHT22;65929;49.062;10.338;2022-12-13T02:56:18;-13.10;88.80
76996;DHT22;65929;49.062;10.338;2022-12-13T02:57:28;-13.10;88.90
76996;DHT22;65929;49.062;10.338;2022-12-13T02:58:32;-13.10;89.00
76996;DHT22;65929;49.062;10.338;2022-12-13T02:59:35;-13.10;89.10
76996;DHT22;65929;49.062;10.338;2022-12-13T03:00:46;-13.10;89.10
76996;DHT22;65929;49.062;10.338;2022-12-13T03:02:03;-13.20;89.10
76996;DHT22;65929;49.062;10.338;2022-12-13T03:03:18;-13.20;89.00
76996;DHT22;65929;49.062;10.338;2022-12-13T03:04:31;-13.20;89.00
76996;DHT22;65929;49.062;10.338;2022-12-13T03:05:43;-13.20;89.00
76996;DHT22;65929;49.062;10.338;2022-12-13T03:07:13;-13.20;89.20
76996;DHT22;65929;49.062;10.338;2022-12-13T03:08:22;-13.20;89.40
76996;DHT22;65929;49.062;10.338;2022-12-13T03:09:35;-13.20;89.40
76996;DHT22;65929;49.062;10.338;2022-12-13T03:10:43;-13.20;89.30
76996;DHT22;65929;49.062;10.338;2022-12-13T03:12:13;-13.20;89.40
76996;DHT22;65929;49.062;10.338;2022-12-13T03:13:42;-13.20;89.50
76996;DHT22;65929;49.062;10.338;2022-12-13T03:14:51;-13.20;89.40
76996;DHT22;65929;49.062;10.338;2022-12-13T03:15:56;-13.20;89.40
76996;DHT22;65929;49.062;10.338;2022-12-13T03:17:00;-13.20;89.40
76996;DHT22;65929;49.062;10.338;2022-12-13T03:18:04;-13.20;89.20
76996;DHT22;65929;49.062;10.338;2022-12-13T03:19:08;-13.20;89.10
76996;DHT22;65929;49.062;10.338;2022-12-13T03:20:09;-13.20;88.90
76996;DHT22;65929;49.062;10.338;2022-12-13T03:21:15;-13.20;88.70
76996;DHT22;65929;49.062;10.338;2022-12-13T03:22:16;-13.20;88.60
76996;DHT22;65929;49.062;10.338;2022-12-13T03:23:18;-13.30;88.50
76996;DHT22;65929;49.062;10.338;2022-12-13T03:24:20;-13.30;88.40
76996;DHT22;65929;49.062;10.338;2022-12-13T03:25:24;-13.30;88.30
76996;DHT22;65929;49.062;10.338;2022-12-13T03:26:26;-13.30;88.30
76996;DHT22;65929;49.062;10.338;2022-12-13T03:27:27;-13.30;88.30
76996;DHT22;65929;49.062;10.338;2022-12-13T03:28:28;-13.20;88.30
76996;DHT22;65929;49.062;10.338;2022-12-13T03:29:29;-13.20;88.30
76996;DHT22;65929;49.062;10.338;2022-12-13T03:30:30;-13.30;88.20
76996;DHT22;65929;49.062;10.338;2022-12-13T03:31:32;-13.30;87.90
76996;DHT22;65929;49.062;10.338;2022-12-13T03:32:37;-13.40;87.80
76996;DHT22;65929;49.062;10.338;2022-12-13T03:33:38;-13.40;87.80
76996;DHT22;65929;49.062;10.338;2022-12-13T03:34:39;-13.40;87.70
76996;DHT22;65929;49.062;10.338;2022-12-13T03:35:41;-13.40;87.80
76996;DHT22;65929;49.062;10.338;2022-12-13T03:36:42;-13.40;87.90
76996;DHT22;65929;49.062;10.338;2022-12-13T03:37:43;-13.40;88.10
76996;DHT22;65929;49.062;10.338;2022-12-13T03:38:45;-13.40;88.20
76996;DHT22;65929;49.062;10.338;2022-12-13T03:39:46;-13.40;88.30
76996;DHT22;65929;49.062;10.338;2022-12-13T03:40:47;-13.40;88.40
76996;DHT22;65929;49.062;10.338;2022-12-13T03:41:49;-13.40;88.70
76996;DHT22;65929;49.062;10.338;2022-12-13T03:42:50;-13.40;88.90
76996;DHT22;65929;49.062;10.338;2022-12-13T03:43:51;-13.40;89.10
76996;DHT22;65929;49.062;10.338;2022-12-13T03:44:52;-13.40;89.20
76996;DHT22;65929;49.062;10.338;2022-12-13T03:45:53;-13.30;89.60
76996;DHT22;65929;49.062;10.338;2022-12-13T03:46:54;-13.20;89.70
76996;DHT22;65929;49.062;10.338;2022-12-13T03:47:56;-13.20;89.90
76996;DHT22;65929;49.062;10.338;2022-12-13T03:48:57;-13.20;90.00
76996;DHT22;65929;49.062;10.338;2022-12-13T03:49:58;-13.20;90.00
76996;DHT22;65929;49.062;10.338;2022-12-13T03:50:59;-13.20;90.10
76996;DHT22;65929;49.062;10.338;2022-12-13T03:52:00;-13.20;90.00
76996;DHT22;65929;49.062;10.338;2022-12-13T03:53:02;-13.20;89.80
76996;DHT22;65929;49.062;10.338;2022-12-13T03:54:03;-13.20;89.60
76996;DHT22;65929;49.062;10.338;2022-12-13T03:55:04;-13.20;89.50
76996;DHT22;65929;49.062;10.338;2022-12-13T03:56:06;-13.20;89.40
76996;DHT22;65929;49.062;10.338;2022-12-13T03:57:07;-13.20;89.20
76996;DHT22;65929;49.062;10.338;2022-12-13T03:58:08;-13.20;89.10
76996;DHT22;65929;49.062;10.338;2022-12-13T03:59:09;-13.30;89.00
76996;DHT22;65929;49.062;10.338;2022-12-13T04:00:11;-13.30;88.80
76996;DHT22;65929;49.062;10.338;2022-12-13T04:01:14;-13.40;88.70
76996;DHT22;65929;49.062;10.338;2022-12-13T04:02:15;-13.40;88.60
76996;DHT22;65929;49.062;10.338;2022-12-13T04:03:17;-13.40;88.40
76996;DHT22;65929;49.062;10.338;2022-12-13T04:04:18;-13.40;88.20
76996;DHT22;65929;49.062;10.338;2022-12-13T04:05:19;-13.50;88.00
76996;DHT22;65929;49.062;10.338;2022-12-13T04:06:20;-13.50;88.00
76996;DHT22;65929;49.062;10.338;2022-12-13T04:07:21;-13.50;88.00
76996;DHT22;65929;49.062;10.338;2022-12-13T04:08:22;-13.50;88.20
76996;DHT22;65929;49.062;10.338;2022-12-13T04:09:23;-13.50;88.20
76996;DHT22;65929;49.062;10.338;2022-12-13T04:10:24;-13.50;88.20
76996;DHT22;65929;49.062;10.338;2022-12-13T04:11:25;-13.60;88.10
76996;DHT22;65929;49.062;10.338;2022-12-13T04:12:45;-13.50;88.20
76996;DHT22;65929;49.062;10.338;2022-12-13T04:14:18;-13.60;88.20
76996;DHT22;65929;49.062;10.338;2022-12-13T04:15:19;-13.60;88.10
76996;DHT22;65929;49.062;10.338;2022-12-13T04:16:20;-13.60;88.00
76996;DHT22;65929;49.062;10.338;2022-12-13T04:17:21;-13.60;88.00
76996;DHT22;65929;49.062;10.338;2022-12-13T04:18:23;-13.60;87.80
76996;DHT22;65929;49.062;10.338;2022-12-13T04:19:24;-13.60;87.70
76996;DHT22;65929;49.062;10.338;2022-12-13T04:20:25;-13.60;87.60
76996;DHT22;65929;49.062;10.338;2022-12-13T04:21:26;-13.60;87.60
76996;DHT22;65929;49.062;10.338;2022-12-13T04:22:27;-13.60;87.50
76996;DHT22;65929;49.062;10.338;2022-12-13T04:23:28;-13.60;87.90
76996;DHT22;65929;49.062;10.338;2022-12-13T04:24:29;-13.60;88.00
76996;DHT22;65929;49.062;10.338;2022-12-13T04:25:30;-13.60;88.20
76996;DHT22;65929;49.062;10.338;2022-12-13T04:26:31;-13.60;88.30
76996;DHT22;65929;49.062;10.338;2022-12-13T04:27:32;-13.60;88.30
76996;DHT22;65929;49.062;10.338;2022-12-13T04:28:33;-13.60;88.30
76996;DHT22;65929;49.062;10.338;2022-12-13T04:29:34;-13.60;88.40
76996;DHT22;65929;49.062;10.338;2022-12-13T04:30:35;-13.60;88.50
76996;DHT22;65929;49.062;10.338;2022-12-13T04:31:36;-13.60;88.70
76996;DHT22;65929;49.062;10.338;2022-12-13T04:32:37;-13.60;88.70
76996;DHT22;65929;49.062;10.338;2022-12-13T04:33:39;-13.60;88.70
76996;DHT22;65929;49.062;10.338;2022-12-13T04:34:40;-13.60;88.60
76996;DHT22;65929;49.062;10.338;2022-12-13T04:35:41;-13.60;88.70
76996;DHT22;65929;49.062;10.338;2022-12-13T04:36:42;-13.60;88.70
76996;DHT22;65929;49.062;10.338;2022-12-13T04:37:43;-13.60;88.70
76996;DHT22;65929;49.062;10.338;2022-12-13T04:38:44;-13.50;88.60
76996;DHT22;65929;49.062;10.338;2022-12-13T04:39:45;-13.50;88.40
76996;DHT22;65929;49.062;10.338;2022-12-13T04:40:46;-13.50;88.30
76996;DHT22;65929;49.062;10.338;2022-12-13T04:41:50;-13.50;88.40
76996;DHT22;65929;49.062;10.338;2022-12-13T04:42:51;-13.50;88.50
76996;DHT22;65929;49.062;10.338;2022-12-13T04:43:54;-13.50;88.50
76996;DHT22;65929;49.062;10.338;2022-12-13T04:44:55;-13.50;88.50
76996;DHT22;65929;49.062;10.338;2022-12-13T04:45:56;-13.50;88.70
76996;DHT22;65929;49.062;10.338;2022-12-13T04:46:58;-13.50;88.60
76996;DHT22;65929;49.062;10.338;2022-12-13T04:47:59;-13.50;88.60
76996;DHT22;65929;49.062;10.338;2022-12-13T04:49:01;-13.50;88.50
76996;DHT22;65929;49.062;10.338;2022-12-13T04:50:03;-13.50;88.60
76996;DHT22;65929;49.062;10.338;2022-12-13T04:51:04;-13.50;88.50
76996;DHT22;65929;49.062;10.338;2022-12-13T04:52:05;-13.50;88.50
76996;DHT22;65929;49.062;10.338;2022-12-13T04:53:06;-13.50;88.40
76996;DHT22;65929;49.062;10.338;2022-12-13T04:54:07;-13.60;88.30
76996;DHT22;65929;49.062;10.338;2022-12-13T04:55:08;-13.60;88.20
76996;DHT22;65929;49.062;10.338;2022-12-13T04:56:11;-13.60;88.20
76996;DHT22;65929;49.062;10.338;2022-12-13T04:57:12;-13.50;88.20
76996;DHT22;65929;49.062;10.338;2022-12-13T04:58:13;-13.60;88.10
76996;DHT22;65929;49.062;10.338;2022-12-13T04:59:14;-13.60;88.00
76996;DHT22;65929;49.062;10.338;2022-12-13T05:00:16;-13.60;87.70
76996;DHT22;65929;49.062;10.338;2022-12-13T05:01:17;-13.60;87.40
76996;DHT22;65929;49.062;10.338;2022-12-13T05:02:18;-13.60;87.20
76996;DHT22;65929;49.062;10.338;2022-12-13T05:03:19;-13.60;87.10
76996;DHT22;65929;49.062;10.338;2022-12-13T05:04:24;-13.70;87.10
76996;DHT22;65929;49.062;10.338;2022-12-13T05:05:25;-13.70;87.20
76996;DHT22;65929;49.062;10.338;2022-12-13T05:06:26;-13.70;87.30
76996;DHT22;65929;49.062;10.338;2022-12-13T05:07:26;-13.70;87.20
76996;DHT22;65929;49.062;10.338;2022-12-13T05:08:27;-13.60;87.20
76996;DHT22;65929;49.062;10.338;2022-12-13T05:09:29;-13.60;87.50
76996;DHT22;65929;49.062;10.338;2022-12-13T05:10:30;-13.60;87.80
76996;DHT22;65929;49.062;10.338;2022-12-13T05:11:31;-13.60;88.10
76996;DHT22;65929;49.062;10.338;2022-12-13T05:12:32;-13.60;88.50
76996;DHT22;65929;49.062;10.338;2022-12-13T05:13:33;-13.50;88.60
76996;DHT22;65929;49.062;10.338;2022-12-13T05:14:34;-13.50;88.60
76996;DHT22;65929;49.062;10.338;2022-12-13T05:15:35;-13.50;88.50
76996;DHT22;65929;49.062;10.338;2022-12-13T05:16:36;-13.50;88.50
76996;DHT22;65929;49.062;10.338;2022-12-13T05:17:37;-13.50;88.30
76996;DHT22;65929;49.062;10.338;2022-12-13T05:18:38;-13.50;88.30
76996;DHT22;65929;49.062;10.338;2022-12-13T05:19:40;-13.60;88.30
76996;DHT22;65929;49.062;10.338;2022-12-13T05:20:41;-13.60;88.20
76996;DHT22;65929;49.062;10.338;2022-12-13T05:21:42;-13.60;88.20
76996;DHT22;65929;49.062;10.338;2022-12-13T05:22:43;-13.60;88.10
76996;DHT22;65929;49.062;10.338;2022-12-13T05:23:44;-13.60;88.00
76996;DHT22;65929;49.062;10.338;2022-12-13T05:24:45;-13.60;87.90
76996;DHT22;65929;49.062;10.338;2022-12-13T05:25:46;-13.60;87.80
76996;DHT22;65929;49.062;10.338;2022-12-13T05:26:47;-13.60;87.60
76996;DHT22;65929;49.062;10.338;2022-12-13T05:27:48;-13.60;87.50
76996;DHT22;65929;49.062;10.338;2022-12-13T05:28:49;-13.60;87.50
76996;DHT22;65929;49.062;10.338;2022-12-13T05:29:53;-13.60;87.50
76996;DHT22;65929;49.062;10.338;2022-12-13T05:30:56;-13.60;87.50
76996;DHT22;65929;49.062;10.338;2022-12-13T05:31:57;-13.60;87.40
76996;DHT22;65929;49.062;10.338;2022-12-13T05:32:58;-13.60;87.50
76996;DHT22;65929;49.062;10.338;2022-12-13T05:33:59;-13.60;87.60
76996;DHT22;65929;49.062;10.338;2022-12-13T05:35:02;-13.60;87.50
76996;DHT22;65929;49.062;10.338;2022-12-13T05:36:03;-13.60;87.60
76996;DHT22;65929;49.062;10.338;2022-12-13T05:37:05;-13.60;87.60
76996;DHT22;65929;49.062;10.338;2022-12-13T05:38:06;-13.60;87.60
76996;DHT22;65929;49.062;10.338;2022-12-13T05:39:07;-13.60;87.70
76996;DHT22;65929;49.062;10.338;2022-12-13T05:40:08;-13.60;87.70
76996;DHT22;65929;49.062;10.338;2022-12-13T05:41:10;-13.60;87.60
76996;DHT22;65929;49.062;10.338;2022-12-13T05:42:13;-13.70;87.70
76996;DHT22;65929;49.062;10.338;2022-12-13T05:43:14;-13.60;88.20
76996;DHT22;65929;49.062;10.338;2022-12-13T05:44:15;-13.60;88.50
76996;DHT22;65929;49.062;10.338;2022-12-13T05:45:17;-13.60;88.50
76996;DHT22;65929;49.062;10.338;2022-12-13T05:46:18;-13.60;88.20
76996;DHT22;65929;49.062;10.338;2022-12-13T05:47:21;-13.60;88.10
76996;DHT22;65929;49.062;10.338;2022-12-13T05:48:22;-13.60;88.00
76996;DHT22;65929;49.062;10.338;2022-12-13T05:49:24;-13.60;87.90
76996;DHT22;65929;49.062;10.338;2022-12-13T05:50:26;-13.60;87.90
76996;DHT22;65929;49.062;10.338;2022-12-13T05:51:27;-13.60;87.80
76996;DHT22;65929;49.062;10.338;2022-12-13T05:52:28;-13.70;87.60
76996;DHT22;65929;49.062;10.338;2022-12-13T05:53:29;-13.70;87.50
76996;DHT22;65929;49.062;10.338;2022-12-13T05:54:30;-13.70;87.30
76996;DHT22;65929;49.062;10.338;2022-12-13T05:55:31;-13.80;87.10
76996;DHT22;65929;49.062;10.338;2022-12-13T05:56:32;-13.80;86.90
76996;DHT22;65929;49.062;10.338;2022-12-13T05:57:33;-13.80;86.90
76996;DHT22;65929;49.062;10.338;2022-12-13T05:58:36;-13.80;87.00
76996;DHT22;65929;49.062;10.338;2022-12-13T05:59:37;-13.80;87.10
76996;DHT22;65929;49.062;10.338;2022-12-13T06:00:38;-13.70;87.50
76996;DHT22;65929;49.062;10.338;2022-12-13T06:01:39;-13.70;87.80
76996;DHT22;65929;49.062;10.338;2022-12-13T06:02:42;-13.60;88.20
76996;DHT22;65929;49.062;10.338;2022-12-13T06:03:43;-13.60;88.50
76996;DHT22;65929;49.062;10.338;2022-12-13T06:04:44;-13.50;88.70
76996;DHT22;65929;49.062;10.338;2022-12-13T06:05:46;-13.40;89.10
76996;DHT22;65929;49.062;10.338;2022-12-13T06:06:50;-13.40;89.30
76996;DHT22;65929;49.062;10.338;2022-12-13T06:07:53;-13.30;89.50
76996;DHT22;65929;49.062;10.338;2022-12-13T06:08:55;-13.30;89.60
76996;DHT22;65929;49.062;10.338;2022-12-13T06:09:56;-13.20;89.60
76996;DHT22;65929;49.062;10.338;2022-12-13T06:10:58;-13.20;89.60
76996;DHT22;65929;49.062;10.338;2022-12-13T06:11:59;-13.20;89.50
76996;DHT22;65929;49.062;10.338;2022-12-13T06:13:00;-13.20;89.40
76996;DHT22;65929;49.062;10.338;2022-12-13T06:14:01;-13.20;89.40
76996;DHT22;65929;49.062;10.338;2022-12-13T06:15:02;-13.20;89.50
76996;DHT22;65929;49.062;10.338;2022-12-13T06:16:05;-13.20;89.50
76996;DHT22;65929;49.062;10.338;2022-12-13T06:17:06;-13.20;89.70
76996;DHT22;65929;49.062;10.338;2022-12-13T06:18:07;-13.20;90.00
76996;DHT22;65929;49.062;10.338;2022-12-13T06:19:08;-13.20;90.00
76996;DHT22;65929;49.062;10.338;2022-12-13T06:20:10;-13.20;90.00
76996;DHT22;65929;49.062;10.338;2022-12-13T06:21:12;-13.20;90.00
76996;DHT22;65929;49.062;10.338;2022-12-13T06:22:13;-13.20;89.90
76996;DHT22;65929;49.062;10.338;2022-12-13T06:23:14;-13.20;89.80
76996;DHT22;65929;49.062;10.338;2022-12-13T06:24:16;-13.20;89.70
76996;DHT22;65929;49.062;10.338;2022-12-13T06:25:18;-13.20;89.60
76996;DHT22;65929;49.062;10.338;2022-12-13T06:26:19;-13.20;89.50
76996;DHT22;65929;49.062;10.338;2022-12-13T06:27:20;-13.20;89.40
76996;DHT22;65929;49.062;10.338;2022-12-13T06:28:21;-13.20;89.30
76996;DHT22;65929;49.062;10.338;2022-12-13T06:29:22;-13.20;89.20
76996;DHT22;65929;49.062;10.338;2022-12-13T06:30:23;-13.20;89.10
76996;DHT22;65929;49.062;10.338;2022-12-13T06:31:24;-13.20;89.20